Time;durP1;ratioP1;P1;durP2;ratioP2;P2;SDS_P1;SDS_P2;PMS_P1;PMS_P2;Temp;Humidity;BMP_temperature;BMP_pressure;BME280_temperature;BME280_humidity;BME280_pressure;Samples;Min_cycle;Max_cycle;Signal;HPM_P1;HPM_P2
2022/02/05 00:00:46;;;;;;;6.60;5.00;;;;;;;3.28;78.48;96014.69;107404;1270;112575;-84
2022/02/05 00:03:23;;;;;;;6.40;3.50;;;;;;;3.36;78.33;96010.55;107324;1270;100860;-83
2022/02/05 00:05:57;;;;;;;7.40;3.70;;;;;;;3.37;78.28;96009.62;107175;1270;211542;-84
2022/02/05 00:08:45;;;;;;;7.80;4.80;;;;;;;3.39;78.20;96006.72;106984;1270;217900;-84
2022/02/05 00:11:46;;;;;;;6.10;3.80;;;;;;;3.40;78.18;96004.44;107297;1270;220919;-84
2022/02/05 00:40:00;;;;;;;7.90;3.90;;;;;;;3.31;78.55;95966.92;106195;1269;1395789;-85
2022/02/05 00:42:38;;;;;;;6.90;3.60;;;;;;;3.32;78.59;95966.83;107263;1270;200608;-84
2022/02/05 00:45:12;;;;;;;9.20;4.70;;;;;;;3.32;78.69;95964.31;107250;1270;194273;-84
2022/02/05 00:47:46;;;;;;;6.70;3.30;;;;;;;3.30;78.81;95962.52;107403;1270;99882;-84
2022/02/05 00:50:21;;;;;;;6.50;4.10;;;;;;;3.30;78.86;95960.52;107153;1271;138510;-84
2022/02/05 00:53:01;;;;;;;9.00;4.30;;;;;;;3.33;79.02;95961.39;106379;1270;1331194;-83
2022/02/05 00:55:35;;;;;;;8.90;4.60;;;;;;;3.37;79.09;95972.52;107131;1270;221573;-84
2022/02/05 00:58:06;;;;;;;6.80;3.40;;;;;;;3.38;79.10;95972.61;107603;1270;118014;-84
2022/02/05 01:00:39;;;;;;;6.60;3.50;;;;;;;3.43;78.95;95970.35;105513;1270;2805823;-84
2022/02/05 01:03:10;;;;;;;7.60;4.70;;;;;;;3.54;78.68;95973.64;107149;1270;137452;-83
2022/02/05 01:05:42;;;;;;;9.00;4.50;;;;;;;3.57;78.41;95970.20;107114;1270;176358;-83
2022/02/05 01:08:14;;;;;;;8.00;4.10;;;;;;;3.58;78.37;95971.15;107406;1270;147532;-84
2022/02/05 01:10:45;;;;;;;5.90;4.50;;;;;;;3.56;78.30;95971.36;107292;1270;119337;-83
2022/02/05 01:13:16;;;;;;;6.40;4.10;;;;;;;3.61;78.24;95975.16;107395;1270;115040;-84
2022/02/05 01:15:55;;;;;;;9.30;4.90;;;;;;;3.62;78.19;95976.05;107367;1270;142882;-83
2022/02/05 01:18:27;;;;;;;9.40;5.00;;;;;;;3.61;78.16;95982.34;107349;1270;105318;-83
2022/02/05 01:21:10;;;;;;;8.10;4.60;;;;;;;3.61;78.13;95978.14;107370;1268;138919;-83
2022/02/05 01:23:45;;;;;;;11.80;5.90;;;;;;;3.60;78.05;95970.17;107186;1270;117807;-82
2022/02/05 01:26:24;;;;;;;7.70;5.00;;;;;;;3.63;78.08;95979.45;107404;1270;131252;-83
2022/02/05 01:29:00;;;;;;;8.30;5.20;;;;;;;3.59;78.05;95990.14;107111;1270;206808;-83
2022/02/05 01:31:37;;;;;;;8.70;5.40;;;;;;;3.59;78.15;95980.96;107185;1270;208728;-83
2022/02/05 01:34:16;;;;;;;6.00;4.10;;;;;;;3.61;78.20;95977.46;107241;1268;247904;-80
2022/02/05 01:51:10;;;;;;;9.20;4.90;;;;;;;3.62;78.46;95957.60;107276;1270;207663;-83
2022/02/05 01:54:11;;;;;;;8.50;6.00;;;;;;;3.69;78.33;95970.52;107203;1270;250420;-84
2022/02/05 01:56:46;;;;;;;9.20;6.40;;;;;;;3.75;78.23;95960.48;104739;1270;2137933;-81
2022/02/05 01:59:32;;;;;;;12.10;7.20;;;;;;;3.74;78.28;95961.95;107333;1270;153048;-84
2022/02/05 02:04:59;;;;;;;9.00;4.80;;;;;;;3.69;78.37;95974.34;107420;1268;115670;-83
2022/02/05 02:13:38;;;;;;;13.70;6.80;;;;;;;3.66;78.74;95967.66;107010;1270;198684;-80
2022/02/05 02:16:28;;;;;;;10.20;6.50;;;;;;;3.65;78.80;95964.27;107256;1270;223742;-82
2022/02/05 02:19:08;;;;;;;9.90;6.40;;;;;;;3.65;78.89;95966.70;107276;1270;153674;-83
2022/02/05 02:21:46;;;;;;;12.80;6.90;;;;;;;3.67;78.93;95964.64;105946;1268;1523663;-80
2022/02/05 02:24:25;;;;;;;9.00;5.70;;;;;;;3.65;78.91;95966.59;106375;1270;1324015;-83
2022/02/05 02:27:10;;;;;;;8.50;5.80;;;;;;;3.63;79.14;95963.84;107164;1270;201061;-83
2022/02/05 02:29:54;;;;;;;10.20;5.80;;;;;;;3.59;79.04;95965.55;106924;1269;197073;-83
2022/02/05 02:32:26;;;;;;;11.20;6.30;;;;;;;3.56;79.20;95956.89;107158;1270;159522;-84
2022/02/05 02:35:03;;;;;;;8.80;5.80;;;;;;;3.56;79.32;95959.35;105907;1269;1839225;-83
2022/02/05 02:37:45;;;;;;;9.40;6.30;;;;;;;3.57;79.36;95958.95;107196;1270;240816;-83
2022/02/05 02:40:26;;;;;;;9.00;5.90;;;;;;;3.56;79.30;95956.36;107260;1267;127330;-83
2022/02/05 02:43:06;;;;;;;9.90;5.90;;;;;;;3.51;79.24;95950.71;105863;1268;2089259;-84
2022/02/05 02:45:41;;;;;;;8.30;5.90;;;;;;;3.47;79.25;95945.52;107484;1270;229234;-83
2022/02/05 02:48:12;;;;;;;9.80;6.10;;;;;;;3.45;79.39;95934.24;107226;1270;172893;-83
2022/02/05 02:56:51;;;;;;;9.40;6.40;;;;;;;3.37;79.91;95961.05;105655;1270;2042488;-84
2022/02/05 02:59:28;;;;;;;9.80;6.20;;;;;;;3.37;80.00;95965.92;107009;1270;214735;-83
2022/02/05 03:02:09;;;;;;;11.40;6.80;;;;;;;3.37;79.97;95974.16;104829;1270;1856278;-83
2022/02/05 03:04:40;;;;;;;9.40;5.80;;;;;;;3.37;80.02;95973.48;105900;1270;1852188;-84
2022/02/05 03:07:13;;;;;;;6.20;4.10;;;;;;;3.40;80.00;95966.23;107130;1270;201532;-83
2022/02/05 03:09:45;;;;;;;9.80;5.40;;;;;;;3.45;79.89;95973.66;107280;1268;207670;-84
2022/02/05 03:12:17;;;;;;;8.10;5.30;;;;;;;3.48;79.73;95968.07;107336;1270;144342;-83
2022/02/05 03:14:48;;;;;;;6.90;4.90;;;;;;;3.48;79.73;95966.45;105763;1270;2191697;-83
2022/02/05 03:17:25;;;;;;;8.60;5.00;;;;;;;3.45;79.75;95966.89;106307;1269;1110825;-83
2022/02/05 03:19:58;;;;;;;10.30;5.20;;;;;;;3.47;79.81;95965.02;107023;1270;261862;-84
2022/02/05 03:22:29;;;;;;;7.70;4.70;;;;;;;3.50;79.64;95961.70;107246;1270;131012;-83
2022/02/05 03:25:03;;;;;;;6.60;4.50;;;;;;;3.57;79.44;95959.77;107031;1270;273549;-84
2022/02/05 03:27:35;;;;;;;5.30;3.50;;;;;;;3.64;79.30;95965.54;105852;1270;1936452;-84
2022/02/05 03:30:11;;;;;;;7.90;5.00;;;;;;;3.62;79.03;95966.46;105983;1270;2081261;-83
2022/02/05 03:32:43;;;;;;;9.20;4.70;;;;;;;3.61;78.99;95957.23;103078;1270;2319358;-83
2022/02/05 03:35:17;;;;;;;8.20;4.30;;;;;;;3.62;79.02;95954.35;104727;1270;1851854;-83
2022/02/05 03:37:55;;;;;;;5.20;3.10;;;;;;;3.61;79.02;95944.77;107191;1270;222650;-83
2022/02/05 03:40:27;;;;;;;4.70;3.30;;;;;;;3.61;78.91;95950.16;107421;1270;93734;-83
2022/02/05 03:42:58;;;;;;;8.40;5.00;;;;;;;3.59;78.93;95953.34;102961;1270;2631561;-83
2022/02/05 03:45:32;;;;;;;6.20;4.70;;;;;;;3.56;79.01;95953.79;107040;1270;186943;-83
2022/02/05 03:48:04;;;;;;;7.30;4.60;;;;;;;3.54;78.94;95948.08;107195;1270;201819;-83
2022/02/05 03:50:35;;;;;;;6.70;3.60;;;;;;;3.53;79.05;95954.77;106256;1270;1791279;-83
2022/02/05 03:53:09;;;;;;;6.80;3.80;;;;;;;3.52;79.12;95953.92;107353;1270;187516;-83
2022/02/05 03:55:44;;;;;;;5.60;3.50;;;;;;;3.54;78.99;95958.87;107052;1270;207585;-82
2022/02/05 03:58:16;;;;;;;6.70;4.50;;;;;;;3.52;79.04;95955.65;107145;1270;212439;-82
2022/02/05 04:00:48;;;;;;;6.70;3.70;;;;;;;3.52;79.19;95959.48;105691;1270;1865405;-83
2022/02/05 04:03:19;;;;;;;6.50;4.30;;;;;;;3.53;79.14;95972.12;105795;1270;1891291;-83
2022/02/05 04:05:51;;;;;;;5.00;3.90;;;;;;;3.52;79.16;95970.54;105964;1269;1716073;-83
2022/02/05 04:08:25;;;;;;;5.20;4.00;;;;;;;3.52;79.28;95964.04;106151;1270;1548720;-83
2022/02/05 04:11:04;;;;;;;5.30;3.60;;;;;;;3.52;79.28;95966.02;107282;1270;133136;-83
2022/02/05 04:16:24;;;;;;;6.20;3.60;;;;;;;3.54;79.29;95965.22;105319;1270;2675473;-84
2022/02/05 04:18:59;;;;;;;5.10;3.20;;;;;;;3.60;79.14;95965.92;105812;1270;1799291;-84
2022/02/05 04:21:31;;;;;;;5.10;4.10;;;;;;;3.62;79.06;95973.91;107236;1268;136163;-84
2022/02/05 04:24:03;;;;;;;5.00;3.50;;;;;;;3.60;79.05;95974.79;104281;1270;2167874;-83
2022/02/05 04:26:35;;;;;;;4.50;3.50;;;;;;;3.59;79.28;95969.53;106047;1270;1898845;-84
2022/02/05 04:29:09;;;;;;;5.90;4.20;;;;;;;3.61;79.26;95968.45;107468;1269;127855;-84
2022/02/05 04:31:41;;;;;;;5.70;3.30;;;;;;;3.60;79.42;95958.17;107495;1270;110195;-83
2022/02/05 04:34:13;;;;;;;5.20;3.80;;;;;;;3.61;79.45;95971.85;107429;1270;134662;-84
2022/02/05 04:36:45;;;;;;;6.40;3.70;;;;;;;3.56;79.55;95973.92;107358;1268;154310;-83
2022/02/05 04:39:20;;;;;;;4.10;2.90;;;;;;;3.52;79.83;95971.01;104971;1269;1871076;-83
2022/02/05 04:41:56;;;;;;;5.80;3.50;;;;;;;3.51;80.09;95968.32;106292;1270;1431024;-84
2022/02/05 04:44:48;;;;;;;3.70;2.40;;;;;;;3.49;80.40;95973.38;106166;1270;1561881;-83
2022/02/05 04:47:41;;;;;;;6.00;3.30;;;;;;;3.48;80.84;95982.23;106007;1270;1460713;-83
2022/02/05 04:51:01;;;;;;;4.00;2.70;;;;;;;3.47;81.06;95970.84;107186;1270;221967;-83
2022/02/05 04:53:43;;;;;;;7.20;4.40;;;;;;;3.45;81.44;95986.13;105181;1270;2649990;-83
2022/02/05 04:56:27;;;;;;;5.50;3.30;;;;;;;3.37;81.60;95989.09;106055;1269;1845783;-83
2022/02/05 05:02:10;;;;;;;;;;;;;;;3.30;82.43;96005.05;104689;1270;2018470;-83
2022/02/05 05:04:47;;;;;;;6.30;4.00;;;;;;;3.22;82.68;96005.08;105843;1270;2094713;-83
2022/02/05 05:10:23;;;;;;;5.90;3.90;;;;;;;3.15;83.37;96018.10;107319;1269;176672;-84
2022/02/05 05:13:01;;;;;;;6.40;4.00;;;;;;;3.14;83.54;96013.96;107289;1270;162366;-83
2022/02/05 05:19:13;;;;;;;6.80;3.80;;;;;;;3.16;83.75;96022.25;107435;1270;150451;-84
2022/02/05 05:21:23;;;;;;;4.30;3.40;;;;;;;3.14;84.03;96022.08;107116;1270;152884;-84
2022/02/05 05:23:54;;;;;;;6.10;4.10;;;;;;;3.19;84.19;96029.83;106078;1270;1796716;-83
2022/02/05 05:26:27;;;;;;;4.70;3.30;;;;;;;3.21;84.12;96035.77;105863;1270;1757365;-84
2022/02/05 05:28:59;;;;;;;7.10;4.70;;;;;;;3.21;84.39;96036.23;105845;1270;1820077;-84
2022/02/05 05:31:33;;;;;;;8.30;3.60;;;;;;;3.19;84.40;96037.63;104214;1270;2299301;-84
2022/02/05 05:34:04;;;;;;;6.30;4.20;;;;;;;3.22;84.62;96042.67;107168;1270;142610;-84
2022/02/05 05:36:36;;;;;;;5.00;3.20;;;;;;;3.21;84.76;96048.95;107468;1270;130213;-84
2022/02/05 05:39:08;;;;;;;6.70;3.80;;;;;;;3.17;84.77;96043.16;107510;1270;114764;-84
2022/02/05 05:41:43;;;;;;;6.60;4.10;;;;;;;3.18;84.93;96047.30;105948;1270;1806185;-81
2022/02/05 05:47:33;;;;;;;5.50;3.30;;;;;;;3.16;85.18;96056.30;103762;1308;545154;-85
2022/02/05 05:50:34;;;;;;;3.90;2.90;;;;;;;3.18;85.20;96056.20;106739;1280;126835;-84
2022/02/05 05:53:13;;;;;;;4.10;3.40;;;;;;;3.18;85.23;96056.58;104510;1271;1834581;-84
2022/02/05 05:55:46;;;;;;;6.30;3.90;;;;;;;3.18;85.23;96054.38;105394;1271;2383037;-84
2022/02/05 05:58:21;;;;;;;5.50;3.50;;;;;;;3.18;85.25;96066.16;104789;1270;1836939;-84
2022/02/05 06:00:55;;;;;;;4.80;2.80;;;;;;;3.15;85.35;96085.35;104933;1270;1721872;-84
2022/02/05 06:03:26;;;;;;;3.40;2.40;;;;;;;3.18;85.85;96114.35;106388;1268;1519143;-84
2022/02/05 06:05:57;;;;;;;3.50;2.50;;;;;;;3.17;86.15;96139.48;105766;1268;2256578;-85
2022/02/05 06:08:28;;;;;;;2.50;1.70;;;;;;;3.00;85.99;96136.44;108063;1268;74813;-83
2022/02/05 06:11:00;;;;;;;2.30;1.50;;;;;;;2.92;85.90;96148.95;108010;1268;41638;-85
2022/02/05 06:13:32;;;;;;;1.40;1.20;;;;;;;2.82;85.95;96160.78;107516;1269;190912;-84
2022/02/05 06:16:08;;;;;;;2.40;1.20;;;;;;;2.66;86.06;96178.98;107332;1268;137028;-83
2022/02/05 06:18:39;;;;;;;1.60;0.90;;;;;;;2.50;86.45;96208.81;107572;1267;120925;-81
2022/02/05 06:21:10;;;;;;;1.90;1.20;;;;;;;2.37;86.62;96207.77;107431;1268;103848;-84
2022/02/05 06:23:43;;;;;;;3.70;1.30;;;;;;;2.26;86.80;96225.45;105755;1268;1877120;-86
2022/02/05 06:26:14;;;;;;;2.80;1.10;;;;;;;2.17;86.61;96224.56;107345;1268;223208;-85
2022/02/05 06:28:45;;;;;;;2.40;1.30;;;;;;;2.09;86.39;96230.11;107363;1268;170676;-85
2022/02/05 06:31:16;;;;;;;2.80;1.30;;;;;;;2.01;86.04;96246.29;107363;1268;123128;-84
2022/02/05 06:33:49;;;;;;;2.60;1.10;;;;;;;1.95;85.16;96239.20;107322;1266;139183;-86
2022/02/05 06:36:22;;;;;;;2.60;1.10;;;;;;;1.91;84.51;96248.75;107423;1267;134794;-83
2022/02/05 06:38:53;;;;;;;0.60;0.60;;;;;;;1.87;84.04;96244.81;105825;1267;2096141;-86
2022/02/05 06:41:24;;;;;;;1.50;0.80;;;;;;;1.82;84.09;96266.57;106068;1267;1922727;-84
2022/02/05 06:43:55;;;;;;;3.20;1.10;;;;;;;1.81;83.80;96259.05;107193;1267;253709;-84
2022/02/05 06:46:26;;;;;;;2.50;0.90;;;;;;;1.77;83.56;96285.80;107211;1267;223567;-84
2022/02/05 06:48:57;;;;;;;0.90;0.70;;;;;;;1.74;83.35;96296.35;107192;1268;210955;-84
2022/02/05 06:51:28;;;;;;;1.30;0.60;;;;;;;1.73;83.01;96287.45;107163;1268;192847;-85
2022/02/05 06:53:59;;;;;;;0.70;0.50;;;;;;;1.71;82.74;96302.36;107515;1268;175311;-84
2022/02/05 06:56:31;;;;;;;1.40;0.70;;;;;;;1.68;82.13;96305.78;107359;1267;135594;-84
2022/02/05 06:59:02;;;;;;;0.90;0.60;;;;;;;1.67;81.77;96318.86;107308;1268;176474;-84
2022/02/05 07:01:33;;;;;;;1.60;0.90;;;;;;;1.67;81.57;96327.50;107318;1268;207633;-84
2022/02/05 07:04:05;;;;;;;0.80;0.70;;;;;;;1.69;80.91;96307.70;105530;1268;2559752;-83
2022/02/05 07:06:37;;;;;;;0.80;0.70;;;;;;;1.73;79.78;96340.44;107561;1268;192150;-84
2022/02/05 07:09:08;;;;;;;1.30;1.00;;;;;;;1.76;79.60;96340.70;107674;1268;125760;-84
2022/02/05 07:11:39;;;;;;;1.50;0.50;;;;;;;1.76;79.31;96342.55;107558;1268;139437;-83
2022/02/05 07:14:10;;;;;;;1.30;0.50;;;;;;;1.81;78.00;96348.29;107352;1268;112818;-84
2022/02/05 07:16:50;;;;;;;0.80;0.80;;;;;;;1.86;77.40;96347.98;107308;1268;166320;-83
2022/02/05 07:19:29;;;;;;;0.50;0.50;;;;;;;1.89;76.78;96361.79;107351;1268;121337;-84
2022/02/05 07:22:01;;;;;;;2.60;0.60;;;;;;;1.87;76.04;96349.88;107518;1268;108573;-83
2022/02/05 07:24:52;;;;;;;1.80;0.80;;;;;;;1.88;75.80;96358.02;107429;1268;116083;-84
2022/02/05 07:30:13;;;;;;;1.30;1.00;;;;;;;1.92;76.44;96366.09;107358;1268;137991;-85
2022/02/05 07:32:47;;;;;;;0.60;0.30;;;;;;;1.95;76.63;96376.34;104215;1267;1764747;-84
2022/02/05 07:35:18;;;;;;;8.80;1.50;;;;;;;2.10;76.37;96374.98;107317;1268;119678;-85
2022/02/05 07:37:55;;;;;;;0.50;0.40;;;;;;;2.29;75.88;96378.89;106327;1268;1347321;-85
2022/02/05 07:40:28;;;;;;;0.50;0.50;;;;;;;2.23;75.42;96390.27;107217;1270;157449;-85
2022/02/05 07:43:00;;;;;;;2.10;0.90;;;;;;;2.17;75.73;96396.63;106088;1268;1463946;-86
2022/02/05 07:45:31;;;;;;;2.00;1.20;;;;;;;2.21;75.97;96413.34;107257;1268;166978;-85
2022/02/05 07:48:03;;;;;;;2.50;1.00;;;;;;;2.27;76.06;96420.70;107340;1267;127247;-85
2022/02/05 07:50:34;;;;;;;1.10;0.80;;;;;;;2.25;76.42;96432.27;107182;1268;158307;-85
2022/02/05 07:53:05;;;;;;;2.00;0.90;;;;;;;2.25;76.58;96431.44;106492;1270;1266551;-85
2022/02/05 07:55:37;;;;;;;1.50;1.20;;;;;;;2.26;76.81;96433.60;107673;1267;113168;-85
2022/02/05 07:58:08;;;;;;;2.50;1.00;;;;;;;2.20;76.89;96436.43;107588;1268;128119;-84
2022/02/05 08:00:39;;;;;;;1.70;1.00;;;;;;;2.20;76.58;96439.37;107537;1268;148586;-84
2022/02/05 08:03:11;;;;;;;0.60;0.50;;;;;;;2.13;75.47;96439.86;107288;1269;188739;-83
2022/02/05 08:05:42;;;;;;;1.90;0.90;;;;;;;2.08;75.39;96439.05;107315;1268;142709;-84
2022/02/05 08:08:18;;;;;;;2.80;1.20;;;;;;;2.06;75.19;96442.36;107438;1268;104765;-85
2022/02/05 08:10:55;;;;;;;2.10;1.00;;;;;;;2.08;75.22;96445.48;107401;1268;119752;-84
2022/02/05 08:13:30;;;;;;;1.80;0.80;;;;;;;2.03;75.00;96453.79;107443;1269;104003;-84
2022/02/05 08:16:12;;;;;;;1.00;0.90;;;;;;;1.96;74.78;96437.13;107229;1268;151743;-84
2022/02/05 08:18:44;;;;;;;1.10;0.80;;;;;;;1.91;74.32;96446.84;107466;1268;147364;-84
2022/02/05 08:21:16;;;;;;;2.70;1.10;;;;;;;1.85;73.52;96434.52;107334;1268;184008;-84
2022/02/05 08:23:48;;;;;;;2.20;1.40;;;;;;;1.78;73.30;96464.69;106656;1268;1269137;-84
2022/02/05 08:26:26;;;;;;;3.40;1.20;;;;;;;1.78;73.46;96455.89;107485;1268;123347;-85
2022/02/05 08:28:59;;;;;;;1.90;1.10;;;;;;;1.81;72.23;96466.52;107378;1268;129274;-84
2022/02/05 08:31:31;;;;;;;1.40;0.90;;;;;;;1.87;71.72;96475.18;107480;1268;127671;-85
2022/02/05 08:34:02;;;;;;;2.00;1.10;;;;;;;1.88;71.21;96483.41;107194;1269;153059;-83
2022/02/05 08:36:41;;;;;;;1.60;0.90;;;;;;;1.88;71.33;96488.48;107451;1268;101465;-84
2022/02/05 08:39:14;;;;;;;3.90;1.20;;;;;;;1.90;71.54;96500.55;107524;1268;114074;-83
2022/02/05 08:41:46;;;;;;;7.00;1.20;;;;;;;1.91;71.14;96502.77;107321;1268;145348;-83
2022/02/05 08:44:18;;;;;;;3.40;1.20;;;;;;;1.89;71.01;96498.39;107242;1268;151715;-84
2022/02/05 08:46:50;;;;;;;3.10;1.30;;;;;;;1.88;71.05;96500.05;107448;1268;132034;-84
2022/02/05 08:49:21;;;;;;;2.50;1.40;;;;;;;1.92;71.13;96513.20;105740;1268;1905872;-84
2022/02/05 08:51:52;;;;;;;2.80;1.10;;;;;;;1.95;71.24;96521.44;107301;1269;155308;-84
2022/02/05 08:54:25;;;;;;;2.30;1.00;;;;;;;1.98;70.91;96516.50;107389;1268;133992;-84
2022/02/05 08:56:57;;;;;;;2.30;1.30;;;;;;;2.02;70.82;96517.16;107220;1268;226028;-83
2022/02/05 08:59:33;;;;;;;1.80;0.90;;;;;;;2.15;70.87;96517.83;107312;1268;198002;-84
2022/02/05 09:02:13;;;;;;;1.60;0.80;;;;;;;2.16;69.54;96505.14;107518;1268;200574;-84
2022/02/05 09:04:52;;;;;;;1.80;1.20;;;;;;;2.12;69.33;96511.94;107365;1268;128704;-83
2022/02/05 09:07:24;;;;;;;2.50;1.50;;;;;;;2.13;69.22;96510.83;106981;1268;242930;-84
2022/02/05 09:10:11;;;;;;;2.60;1.20;;;;;;;2.21;69.47;96511.98;107342;1267;162364;-84
2022/02/05 09:13:08;;;;;;;4.30;1.60;;;;;;;2.32;69.50;96512.66;107167;1268;153346;-84
2022/02/05 09:15:40;;;;;;;4.20;1.50;;;;;;;2.51;69.16;96517.35;107601;1268;117367;-84
2022/02/05 09:18:11;;;;;;;4.20;1.30;;;;;;;2.51;67.53;96512.45;107420;1268;178102;-83
2022/02/05 09:20:42;;;;;;;4.90;1.20;;;;;;;2.51;67.74;96526.92;107396;1268;176103;-84
2022/02/05 09:23:14;;;;;;;2.80;1.20;;;;;;;2.49;67.51;96518.88;106157;1268;1796752;-83
2022/02/05 09:25:45;;;;;;;1.10;0.60;;;;;;;2.52;67.61;96518.06;107407;1268;146790;-84
2022/02/05 09:28:16;;;;;;;2.50;1.00;;;;;;;2.53;67.47;96517.30;107246;1268;231578;-84
2022/02/05 09:31:00;;;;;;;2.80;1.70;;;;;;;2.59;67.27;96515.92;107163;1268;208654;-84
2022/02/05 09:33:32;;;;;;;2.80;1.10;;;;;;;2.59;66.08;96519.27;105621;1268;2158980;-84
2022/02/05 09:36:05;;;;;;;7.00;2.20;;;;;;;2.59;66.41;96533.65;107147;1268;206549;-83
2022/02/05 09:38:37;;;;;;;3.40;1.30;;;;;;;2.64;65.31;96519.77;106039;1268;2088920;-84
2022/02/05 09:41:08;;;;;;;2.30;1.20;;;;;;;2.63;64.84;96526.88;107508;1268;151566;-84
2022/02/05 09:43:39;;;;;;;4.70;1.20;;;;;;;2.60;64.65;96532.89;107464;1268;214765;-84
2022/02/05 09:46:11;;;;;;;3.10;1.70;;;;;;;2.61;65.06;96533.54;107060;1268;313319;-82
2022/02/05 09:48:44;;;;;;;4.20;1.20;;;;;;;2.61;65.49;96532.59;107319;1268;213862;-83
2022/02/05 09:51:19;;;;;;;5.00;1.10;;;;;;;2.60;65.92;96539.02;107525;1268;109057;-84
2022/02/05 09:53:52;;;;;;;2.50;1.50;;;;;;;2.56;65.57;96536.80;107425;1268;136022;-84
2022/02/05 09:56:25;;;;;;;6.20;2.00;;;;;;;2.57;65.89;96531.42;107344;1268;167183;-84
2022/02/05 09:58:57;;;;;;;6.90;2.00;;;;;;;2.61;66.07;96526.52;107344;1268;126618;-84
2022/02/05 10:01:32;;;;;;;5.10;1.90;;;;;;;2.55;65.44;96530.69;107358;1268;164586;-84
2022/02/05 10:04:10;;;;;;;11.80;5.00;;;;;;;2.48;65.55;96530.70;107268;1271;124913;-84
2022/02/05 10:06:49;;;;;;;7.30;2.40;;;;;;;2.43;65.92;96537.23;107174;1269;151586;-83
2022/02/05 10:09:20;;;;;;;7.40;4.10;;;;;;;2.41;66.01;96523.80;107442;1268;104865;-84
2022/02/05 10:11:56;;;;;;;3.90;1.70;;;;;;;2.36;65.74;96527.55;107421;1268;115537;-84
2022/02/05 10:14:30;;;;;;;3.50;1.80;;;;;;;2.32;66.17;96533.55;107360;1267;136137;-84
2022/02/05 10:17:04;;;;;;;6.90;2.40;;;;;;;2.32;66.38;96525.34;107358;1268;158237;-84
2022/02/05 10:19:50;;;;;;;2.60;1.20;;;;;;;2.35;66.30;96526.73;106258;1268;1826128;-85
2022/02/05 10:22:23;;;;;;;3.60;1.40;;;;;;;2.41;66.27;96528.17;107379;1268;135782;-84
2022/02/05 10:24:59;;;;;;;3.80;1.00;;;;;;;2.51;66.13;96524.73;107255;1268;137941;-84
2022/02/05 10:27:31;;;;;;;3.30;1.30;;;;;;;2.56;65.87;96523.60;107547;1266;151095;-84
2022/02/05 10:30:12;;;;;;;8.70;3.50;;;;;;;2.60;65.91;96524.41;107435;1268;119428;-84
2022/02/05 10:32:48;;;;;;;3.50;1.60;;;;;;;2.68;65.76;96519.92;107330;1268;220717;-84
2022/02/05 10:35:25;;;;;;;5.40;2.80;;;;;;;2.71;65.33;96523.14;107330;1268;188286;-84
2022/02/05 10:38:03;;;;;;;4.70;1.70;;;;;;;2.76;65.25;96522.13;106505;1268;1299696;-85
2022/02/05 10:40:45;;;;;;;3.10;1.60;;;;;;;2.79;64.78;96522.59;107428;1268;214260;-84
2022/02/05 10:43:36;;;;;;;4.70;1.70;;;;;;;2.88;65.13;96515.01;107317;1268;196336;-84
2022/02/05 10:46:07;;;;;;;1.60;0.70;;;;;;;2.99;63.98;96512.80;106190;1268;1857650;-85
2022/02/05 10:48:43;;;;;;;4.60;1.00;;;;;;;2.99;63.23;96509.09;106150;1268;1939143;-84
2022/02/05 10:51:15;;;;;;;3.30;1.00;;;;;;;2.91;61.05;96499.13;105987;1268;2048595;-84
2022/02/05 10:53:51;;;;;;;5.10;1.80;;;;;;;2.86;62.25;96512.81;107445;1268;113440;-84
2022/02/05 10:56:31;;;;;;;7.20;2.10;;;;;;;2.85;62.15;96514.64;107291;1268;234126;-84
2022/02/05 10:59:28;;;;;;;3.40;1.50;;;;;;;2.81;62.37;96520.72;107245;1268;187205;-84
2022/02/05 11:07:40;;;;;;;4.20;1.80;;;;;;;2.72;62.25;96527.70;106276;1268;1887137;-84
2022/02/05 11:13:20;;;;;;;2.70;1.70;;;;;;;2.77;62.86;96527.23;107441;1268;133582;-84
2022/02/05 11:16:05;;;;;;;2.20;1.60;;;;;;;2.86;62.14;96514.90;107482;1268;121212;-84
2022/02/05 11:18:54;;;;;;;5.20;1.70;;;;;;;3.07;62.12;96521.38;106262;1268;1812953;-84
2022/02/05 11:21:28;;;;;;;3.20;1.70;;;;;;;3.16;61.63;96524.50;107078;1268;214516;-84
2022/02/05 11:24:04;;;;;;;6.60;1.90;;;;;;;3.15;61.33;96522.17;105923;1268;2048209;-84
2022/02/05 11:26:35;;;;;;;5.80;2.20;;;;;;;3.19;61.18;96525.64;107294;1268;140213;-84
2022/02/05 11:29:08;;;;;;;7.60;2.50;;;;;;;3.35;61.48;96524.59;107561;1268;176961;-84
2022/02/05 11:31:42;;;;;;;6.40;2.20;;;;;;;3.61;61.02;96521.03;107680;1268;124975;-83
2022/02/05 11:34:25;;;;;;;4.30;1.60;;;;;;;3.69;60.26;96513.52;107440;1268;124053;-84
2022/02/05 11:37:07;;;;;;;6.80;2.60;;;;;;;3.59;59.58;96521.73;107438;1268;104757;-86
2022/02/05 11:39:48;;;;;;;3.00;1.80;;;;;;;3.47;59.61;96521.36;107493;1267;163061;-85
2022/02/05 11:42:34;;;;;;;5.60;2.00;;;;;;;3.34;59.11;96524.95;107500;1268;136258;-85
2022/02/05 11:45:35;;;;;;;3.90;1.40;;;;;;;3.22;59.42;96530.12;105915;1267;1945477;-86
2022/02/05 11:48:36;;;;;;;2.80;1.40;;;;;;;3.14;59.35;96533.42;107473;1268;183842;-85
2022/02/05 11:51:13;;;;;;;2.70;1.40;;;;;;;3.10;58.61;96532.07;107482;1268;206272;-85
2022/02/05 11:54:14;;;;;;;4.10;2.30;;;;;;;3.08;58.97;96532.02;107179;1267;211956;-84
2022/02/05 11:56:50;;;;;;;3.40;1.70;;;;;;;3.14;59.76;96536.10;107217;1268;174863;-84
2022/02/05 11:59:24;;;;;;;4.20;1.70;;;;;;;3.16;60.24;96526.91;106120;1268;1916782;-84
2022/02/05 12:02:15;;;;;;;5.20;1.60;;;;;;;3.19;60.09;96527.64;105308;1268;2633612;-84
2022/02/05 12:04:45;;;;;;;;;;;;;;;3.14;59.23;96530.17;106127;1268;1682099;-85
2022/02/05 12:07:18;;;;;;;4.70;2.20;;;;;;;3.10;59.62;96530.63;107380;1268;148517;-84
2022/02/05 12:09:52;;;;;;;3.30;2.00;;;;;;;3.07;59.27;96529.09;107485;1267;110208;-84
2022/02/05 12:12:46;;;;;;;7.20;2.20;;;;;;;3.08;60.10;96528.52;107331;1268;174545;-84
2022/02/05 12:15:27;;;;;;;4.40;2.00;;;;;;;3.19;60.32;96526.64;107432;1268;104783;-84
2022/02/05 12:18:24;;;;;;;4.50;1.70;;;;;;;3.20;59.89;96528.71;107275;1268;177818;-85
2022/02/05 12:21:15;;;;;;;3.90;1.50;;;;;;;3.18;59.23;96514.69;107328;1268;202761;-85
2022/02/05 12:27:25;;;;;;;5.20;2.90;;;;;;;3.07;60.30;96529.71;107490;1268;211129;-84
2022/02/05 12:30:17;;;;;;;6.30;2.10;;;;;;;3.01;60.66;96541.23;105603;1268;2631338;-85
2022/02/05 12:32:52;;;;;;;3.50;2.20;;;;;;;2.93;61.08;96550.80;107360;1268;164318;-84
2022/02/05 12:35:24;;;;;;;4.50;2.00;;;;;;;2.84;61.37;96552.19;107342;1268;290111;-85
2022/02/05 12:38:00;;;;;;;2.20;1.10;;;;;;;2.78;61.97;96552.95;107429;1268;111935;-84
2022/02/05 12:40:31;;;;;;;4.10;1.40;;;;;;;2.58;64.00;96552.45;107308;1268;209873;-85
2022/02/05 12:43:03;;;;;;;4.90;1.50;;;;;;;2.36;65.85;96559.11;107273;1268;134133;-85
2022/02/05 12:45:51;;;;;;;4.40;1.30;;;;;;;2.16;67.44;96561.63;107226;1268;157909;-84
2022/02/05 12:48:27;;;;;;;3.50;1.70;;;;;;;2.01;68.83;96551.65;104274;1268;2204157;-84
2022/02/05 12:51:00;;;;;;;5.00;2.20;;;;;;;1.90;69.81;96553.95;107428;1268;134671;-84
2022/02/05 12:53:40;;;;;;;9.00;3.20;;;;;;;1.80;70.85;96561.00;107485;1268;103095;-84
2022/02/05 12:56:17;;;;;;;12.20;6.90;;;;;;;1.65;72.36;96566.48;107347;1267;140037;-83
2022/02/05 12:59:01;;;;;;;8.50;4.70;;;;;;;1.52;73.14;96578.84;107302;1268;235165;-84
2022/02/05 13:01:33;;;;;;;11.00;5.80;;;;;;;1.38;74.56;96593.20;106317;1268;1551351;-84
2022/02/05 13:04:14;;;;;;;14.80;7.80;;;;;;;1.22;76.41;96605.20;105805;1268;2076970;-83
2022/02/05 13:06:59;;;;;;;10.90;6.40;;;;;;;1.06;77.28;96612.31;106119;1268;1725458;-83
2022/02/05 13:09:33;;;;;;;4.60;2.10;;;;;;;0.94;78.19;96630.91;107553;1268;108457;-83
2022/02/05 13:12:08;;;;;;;3.90;2.50;;;;;;;0.81;79.39;96648.49;107488;1268;150185;-83
2022/02/05 13:14:47;;;;;;;1.90;1.10;;;;;;;0.73;80.38;96621.73;107674;1267;104890;-83
2022/02/05 13:17:44;;;;;;;2.70;1.30;;;;;;;0.75;81.18;96592.80;107372;1268;140859;-82
2022/02/05 13:29:18;;;;;;;3.80;1.60;;;;;;;1.68;81.15;96582.96;107972;1268;97070;-82
2022/02/05 13:35:02;;;;;;;3.90;1.80;;;;;;;2.11;79.41;96571.81;107506;1274;146007;-83
2022/02/05 13:37:46;;;;;;;2.60;1.60;;;;;;;2.16;78.72;96575.39;107461;1274;128595;-83
2022/02/05 13:40:22;;;;;;;4.00;2.30;;;;;;;2.29;78.76;96576.27;107847;1268;125079;-83
2022/02/05 13:43:10;;;;;;;4.20;2.60;;;;;;;2.32;78.50;96577.13;108008;1268;140998;-83